createdAt,value
2023-01-11T00:00:46.695Z,26.95
2023-01-11T00:03:14.916Z,27.38
2023-01-11T00:05:43.488Z,26.50
2023-01-11T00:08:10.780Z,26.85
2023-01-11T00:10:37.568Z,26.02
2023-01-11T00:13:04.896Z,25.23
2023-01-11T00:15:31.386Z,25.05
2023-01-11T00:17:57.906Z,25.40
2023-01-11T00:20:25.311Z,23.38
2023-01-11T00:22:52.199Z,25.10
2023-01-11T00:25:18.719Z,24.55
2023-01-11T00:27:47.165Z,27.02
2023-01-11T00:30:14.109Z,26.60
2023-01-11T00:32:40.731Z,27.02
2023-01-11T00:35:07.926Z,26.70
2023-01-11T00:37:34.424Z,26.20
2023-01-11T00:40:00.875Z,26.63
2023-01-11T00:42:46.158Z,26.65
2023-01-11T00:45:31.005Z,25.73
2023-01-11T00:47:57.554Z,25.40
2023-01-11T00:50:25.427Z,26.50
2023-01-11T00:52:52.040Z,25.92
2023-01-11T00:55:19.019Z,26.92
2023-01-11T00:57:45.463Z,27.13
2023-01-11T01:00:12.872Z,27.67
2023-01-11T01:02:39.864Z,26.70
2023-01-11T01:05:06.962Z,26.60
2023-01-11T01:07:33.578Z,25.45
2023-01-11T01:10:00.029Z,25.52
2023-01-11T01:12:44.720Z,26.45
2023-01-11T01:15:11.501Z,26.10
2023-01-11T01:17:38.216Z,24.55
2023-01-11T01:20:05.977Z,24.83
2023-01-11T01:22:32.472Z,25.90
2023-01-11T01:24:58.990Z,24.55
2023-01-11T01:27:25.676Z,25.10
2023-01-11T01:29:52.175Z,24.38
2023-01-11T01:32:18.605Z,24.80
2023-01-11T01:34:45.063Z,24.17
2023-01-11T01:37:11.659Z,24.00
2023-01-11T01:39:38.320Z,24.92
2023-01-11T01:42:06.021Z,24.98
2023-01-11T01:44:54.278Z,24.90
2023-01-11T01:47:29.365Z,24.80
2023-01-11T01:49:59.093Z,24.65
2023-01-11T01:52:29.146Z,24.85
2023-01-11T01:55:01.441Z,25.02
2023-01-11T01:57:32.024Z,25.45
2023-01-11T02:00:02.872Z,25.48
2023-01-11T02:02:29.379Z,24.73
2023-01-11T02:04:57.457Z,23.77
2023-01-11T02:07:31.749Z,23.67
2023-01-11T02:10:04.643Z,22.58
2023-01-11T02:12:39.037Z,22.27
2023-01-11T02:15:07.199Z,21.80
2023-01-11T02:17:33.601Z,22.27
2023-01-11T02:20:12.423Z,22.50
2023-01-11T02:23:07.656Z,22.08
2023-01-11T02:26:23.483Z,22.27
2023-01-11T02:29:28.280Z,22.30
2023-01-11T02:32:07.045Z,22.52
2023-01-11T02:34:45.323Z,22.60
2023-01-11T02:37:26.195Z,21.77
2023-01-11T02:40:10.871Z,22.02
2023-01-11T02:42:57.158Z,22.15
2023-01-11T02:45:47.198Z,21.60
2023-01-11T02:48:36.663Z,22.17
2023-01-11T02:51:12.485Z,22.47
2023-01-11T02:53:57.980Z,22.33
2023-01-11T02:56:32.307Z,21.85
2023-01-11T02:59:00.920Z,21.63
2023-01-11T03:01:27.524Z,20.60
2023-01-11T03:03:54.540Z,20.33
2023-01-11T03:06:26.012Z,21.45
2023-01-11T03:09:12.236Z,20.77
2023-01-11T03:12:06.555Z,20.40
2023-01-11T03:14:46.172Z,20.60
2023-01-11T03:17:31.929Z,21.65
2023-01-11T03:20:08.847Z,21.77
2023-01-11T03:22:54.050Z,20.90
2023-01-11T03:25:28.724Z,20.25
2023-01-11T03:28:16.535Z,19.65
2023-01-11T03:31:02.303Z,19.63
2023-01-11T03:33:39.286Z,19.50
2023-01-11T03:36:23.299Z,19.75
2023-01-11T03:39:03.278Z,20.92
2023-01-11T03:41:34.962Z,22.00
2023-01-11T03:44:05.798Z,22.17
2023-01-11T03:46:36.981Z,20.70
2023-01-11T03:49:10.300Z,21.45
2023-01-11T03:51:43.403Z,21.48
2023-01-11T03:54:14.139Z,21.45
2023-01-11T03:57:05.004Z,21.35
2023-01-11T03:59:32.948Z,21.40
2023-01-11T04:02:00.084Z,21.02
2023-01-11T04:04:27.252Z,21.20
2023-01-11T04:06:53.946Z,21.60
2023-01-11T04:09:20.514Z,21.60
2023-01-11T04:11:47.028Z,21.35
2023-01-11T04:14:13.416Z,21.50
2023-01-11T04:16:39.873Z,21.50
2023-01-11T04:19:06.392Z,21.00
2023-01-11T04:21:33.091Z,21.30
2023-01-11T04:23:59.746Z,20.77
2023-01-11T04:26:26.146Z,21.20
2023-01-11T04:28:54.315Z,21.92
2023-01-11T04:31:21.291Z,21.20
2023-01-11T04:33:47.821Z,20.98
2023-01-11T04:36:14.321Z,22.65
2023-01-11T04:38:40.724Z,22.20
2023-01-11T04:41:26.116Z,22.80
2023-01-11T04:43:56.500Z,22.45
2023-01-11T04:46:23.930Z,22.15
2023-01-11T04:48:51.370Z,21.58
2023-01-11T04:51:17.895Z,22.40
2023-01-11T04:53:47.208Z,21.73
2023-01-11T04:56:13.736Z,22.57
2023-01-11T04:58:40.177Z,21.48
2023-01-11T05:01:12.077Z,21.77
2023-01-11T05:03:38.722Z,21.60
2023-01-11T05:06:05.910Z,21.17
2023-01-11T05:08:33.082Z,20.95
2023-01-11T05:11:02.157Z,20.58
2023-01-11T05:13:45.092Z,20.15
2023-01-11T05:16:17.616Z,20.10
2023-01-11T05:18:45.371Z,19.67
2023-01-11T05:21:13.558Z,19.23
2023-01-11T05:23:41.319Z,19.50
2023-01-11T05:26:10.749Z,18.73
2023-01-11T05:28:37.422Z,18.08
2023-01-11T05:31:03.918Z,18.38
2023-01-11T05:33:31.060Z,17.75
2023-01-11T05:36:02.266Z,17.80
2023-01-11T05:38:29.336Z,18.70
2023-01-11T05:40:58.057Z,19.35
2023-01-11T05:43:24.773Z,18.60
2023-01-11T05:45:51.530Z,18.85
2023-01-11T05:48:18.460Z,18.80
2023-01-11T05:50:49.391Z,18.90
2023-01-11T05:53:15.837Z,18.92
2023-01-11T05:55:53.370Z,18.30
2023-01-11T05:58:19.831Z,17.95
2023-01-11T06:00:51.006Z,17.50
2023-01-11T06:03:17.586Z,17.65
2023-01-11T06:05:45.938Z,17.77
2023-01-11T06:08:13.396Z,17.63
2023-01-11T06:10:39.991Z,18.00
2023-01-11T06:13:28.201Z,18.42
2023-01-11T06:16:00.205Z,18.85
2023-01-11T06:18:28.070Z,18.80
2023-01-11T06:20:55.285Z,19.25
2023-01-11T06:23:22.855Z,19.50
2023-01-11T06:25:49.617Z,18.90
2023-01-11T06:28:16.297Z,18.88
2023-01-11T06:30:43.113Z,19.52
2023-01-11T06:33:09.609Z,19.23
2023-01-11T06:35:40.915Z,18.60
2023-01-11T06:38:10.719Z,19.75
2023-01-11T06:40:38.964Z,21.40
2023-01-11T06:43:05.970Z,21.65
2023-01-11T06:45:32.755Z,22.13
2023-01-11T06:47:59.805Z,22.42
2023-01-11T06:50:26.762Z,21.95
2023-01-11T06:53:03.610Z,22.25
2023-01-11T06:55:30.719Z,22.98
2023-01-11T06:57:57.393Z,23.33
2023-01-11T07:00:24.754Z,22.83
2023-01-11T07:02:51.177Z,24.13
2023-01-11T07:05:19.344Z,23.75
2023-01-11T07:07:46.249Z,24.27
2023-01-11T07:10:15.863Z,24.60
2023-01-11T07:12:42.658Z,25.58
2023-01-11T07:15:10.458Z,25.45
2023-01-11T07:17:37.536Z,27.00
2023-01-11T07:20:05.225Z,25.88
2023-01-11T07:22:35.326Z,24.98
2023-01-11T07:25:02.774Z,26.13
2023-01-11T07:27:29.219Z,26.63
2023-01-11T07:29:55.761Z,27.13
2023-01-11T07:32:22.248Z,26.45
2023-01-11T07:34:48.866Z,26.48
2023-01-11T07:37:29.387Z,26.45
2023-01-11T07:39:56.343Z,26.80
2023-01-11T07:42:41.220Z,27.60
2023-01-11T07:45:08.206Z,27.63
2023-01-11T07:47:34.646Z,26.63
2023-01-11T07:50:01.080Z,26.73
2023-01-11T07:52:27.499Z,26.00
2023-01-11T07:54:53.971Z,26.17
2023-01-11T07:57:20.375Z,26.42
2023-01-11T07:59:46.780Z,27.00
2023-01-11T08:02:13.232Z,26.08
2023-01-11T08:04:39.628Z,26.10
2023-01-11T08:07:06.186Z,25.95
2023-01-11T08:09:32.647Z,26.70
2023-01-11T08:12:17.664Z,27.02
2023-01-11T08:14:44.140Z,26.75
2023-01-11T08:17:15.827Z,26.90
2023-01-11T08:19:43.257Z,27.30
2023-01-11T08:22:10.445Z,26.90
2023-01-11T08:24:37.219Z,26.38
2023-01-11T08:27:05.205Z,25.75
2023-01-11T08:29:32.429Z,26.30
2023-01-11T08:31:59.465Z,26.77
2023-01-11T08:34:27.636Z,27.27
2023-01-11T08:36:54.134Z,27.13
2023-01-11T08:39:20.652Z,27.05
2023-01-11T08:41:47.226Z,26.65
2023-01-11T08:44:15.055Z,27.17
2023-01-11T08:46:41.595Z,26.73
2023-01-11T08:49:12.319Z,26.90
2023-01-11T08:51:42.248Z,26.00
2023-01-11T08:54:14.069Z,26.30
2023-01-11T08:56:41.007Z,28.70
2023-01-11T08:59:07.409Z,27.23
2023-01-11T09:01:33.882Z,26.88
2023-01-11T09:04:00.358Z,27.63
2023-01-11T09:06:27.074Z,28.48
2023-01-11T09:08:53.636Z,28.25
2023-01-11T09:11:40.407Z,28.48
2023-01-11T09:14:07.194Z,28.48
2023-01-11T09:16:33.910Z,28.80
2023-01-11T09:19:00.392Z,28.00
2023-01-11T09:21:27.193Z,28.40
2023-01-11T09:23:53.671Z,27.65
2023-01-11T09:26:20.145Z,27.08
2023-01-11T09:28:46.647Z,27.45
2023-01-11T09:31:13.156Z,26.42
2023-01-11T09:33:39.725Z,26.58
2023-01-11T09:36:07.495Z,26.58
2023-01-11T09:38:34.116Z,27.48
2023-01-11T09:41:23.133Z,28.08
2023-01-11T09:44:20.262Z,28.08
2023-01-11T09:46:56.065Z,28.65
2023-01-11T09:49:28.134Z,27.40
2023-01-11T09:52:23.974Z,28.80
2023-01-11T09:54:51.328Z,27.50
2023-01-11T09:57:37.551Z,27.08
2023-01-11T10:00:12.721Z,27.58
2023-01-11T10:03:05.362Z,27.33
2023-01-11T10:05:46.036Z,26.73
2023-01-11T10:18:26.523Z,27.10
2023-01-11T10:18:28.361Z,26.15
2023-01-11T10:21:13.292Z,24.92
2023-01-11T10:24:03.024Z,25.35
2023-01-11T10:26:37.379Z,25.08
2023-01-11T10:29:53.454Z,24.60
2023-01-11T10:32:55.703Z,26.60
2023-01-11T10:36:02.388Z,25.55
2023-01-11T10:38:47.466Z,24.33
2023-01-11T10:41:26.432Z,24.67
2023-01-11T10:44:10.510Z,25.13
2023-01-11T10:46:43.411Z,24.83
2023-01-11T10:49:25.785Z,26.08
2023-01-11T10:51:55.654Z,23.65
2023-01-11T10:54:33.203Z,23.25
2023-01-11T10:57:02.759Z,30.48
2023-01-11T10:59:37.817Z,33.88
2023-01-11T11:02:16.535Z,25.63
2023-01-11T11:05:07.712Z,24.17
2023-01-11T11:07:40.265Z,22.23
2023-01-11T11:10:18.943Z,20.52
2023-01-11T11:13:06.701Z,20.83
2023-01-11T11:15:56.429Z,20.67
2023-01-11T11:18:23.649Z,19.80
2023-01-11T11:20:50.453Z,19.92
2023-01-11T11:23:21.537Z,19.45
2023-01-11T11:25:57.403Z,19.55
2023-01-11T11:28:30.982Z,19.77
2023-01-11T11:31:00.520Z,23.33
2023-01-11T11:33:33.920Z,19.70
2023-01-11T11:36:12.343Z,18.55
2023-01-11T11:38:59.941Z,20.17
2023-01-11T11:41:26.374Z,18.52
2023-01-11T11:44:14.508Z,19.13
2023-01-11T11:46:41.115Z,18.50
2023-01-11T11:49:12.803Z,19.73
2023-01-11T11:51:41.146Z,19.27
2023-01-11T11:54:30.237Z,18.40
2023-01-11T11:56:59.165Z,19.70
2023-01-11T11:59:29.868Z,18.55
2023-01-11T12:02:03.464Z,17.60
2023-01-11T12:04:57.612Z,16.63
2023-01-11T12:07:38.076Z,16.85
2023-01-11T12:10:13.434Z,16.55
2023-01-11T12:12:54.977Z,16.30
2023-01-11T12:15:25.541Z,17.13
2023-01-11T12:17:52.496Z,17.30
2023-01-11T12:20:21.609Z,19.58
2023-01-11T12:23:07.179Z,16.40
2023-01-11T12:25:40.560Z,15.13
2023-01-11T12:28:52.072Z,15.68
2023-01-11T12:31:40.321Z,14.95
2023-01-11T12:34:25.448Z,14.98
2023-01-11T12:37:02.495Z,13.80
2023-01-11T12:39:58.117Z,14.40
2023-01-11T12:42:49.545Z,14.00
2023-01-11T12:45:40.141Z,14.05
2023-01-11T12:48:12.627Z,13.23
2023-01-11T12:51:09.276Z,13.10
2023-01-11T12:54:09.801Z,12.13
2023-01-11T12:56:51.159Z,12.52
2023-01-11T12:59:28.576Z,16.90
2023-01-11T13:02:28.854Z,12.73
2023-01-11T13:08:03.452Z,12.43
2023-01-11T13:10:39.224Z,13.95
2023-01-11T13:13:14.806Z,12.05
2023-01-11T13:16:14.191Z,13.23
2023-01-11T13:19:09.985Z,12.23
2023-01-11T13:21:44.738Z,10.52
2023-01-11T13:24:16.414Z,11.18
2023-01-11T13:26:45.764Z,10.90
2023-01-11T13:29:29.161Z,11.60
2023-01-11T13:31:59.437Z,11.10
2023-01-11T13:37:15.455Z,11.10
2023-01-11T13:39:47.585Z,10.90
2023-01-11T13:42:38.473Z,10.32
2023-01-11T13:45:26.714Z,10.13
2023-01-11T13:48:01.750Z,11.77
2023-01-11T13:50:32.797Z,11.30
2023-01-11T13:53:11.449Z,11.05
2023-01-11T13:55:40.439Z,10.63
2023-01-11T13:58:16.392Z,10.35
2023-01-11T14:00:56.746Z,10.80
2023-01-11T14:03:41.657Z,10.55
2023-01-11T14:06:23.155Z,10.30
2023-01-11T14:08:52.181Z,10.32
2023-01-11T14:11:24.447Z,10.50
2023-01-11T14:14:17.763Z,10.95
2023-01-11T14:16:56.541Z,10.70
2023-01-11T14:19:32.213Z,10.50
2023-01-11T14:22:31.047Z,11.25
2023-01-11T14:25:00.797Z,11.32
2023-01-11T14:27:33.296Z,12.13
2023-01-11T14:30:11.555Z,11.50
2023-01-11T14:32:56.669Z,11.60
2023-01-11T14:35:25.910Z,11.25
2023-01-11T14:37:55.478Z,10.98
2023-01-11T14:40:33.666Z,10.88
2023-01-11T14:43:25.923Z,10.90
2023-01-11T14:46:24.130Z,10.48
2023-01-11T14:49:10.737Z,9.95
2023-01-11T14:52:03.236Z,10.80
2023-01-11T14:54:40.116Z,11.60
2023-01-11T14:57:06.577Z,10.93
2023-01-11T14:59:40.335Z,12.20
2023-01-11T15:02:23.129Z,11.05
2023-01-11T15:04:52.556Z,11.48
2023-01-11T15:07:35.277Z,11.35
2023-01-11T15:10:04.660Z,9.93
2023-01-11T15:12:39.327Z,10.20
2023-01-11T15:15:54.795Z,10.52
2023-01-11T15:18:26.760Z,10.65
2023-01-11T15:21:06.186Z,10.32
2023-01-11T15:23:38.298Z,10.87
2023-01-11T15:26:09.432Z,10.73
2023-01-11T15:28:50.429Z,11.40
2023-01-11T15:31:39.101Z,12.85
2023-01-11T15:34:28.840Z,20.50
2023-01-11T15:37:02.246Z,30.25
2023-01-11T15:39:37.759Z,18.90
2023-01-11T15:42:16.651Z,16.27
2023-01-11T15:44:55.038Z,11.68
2023-01-11T15:47:36.495Z,14.45
2023-01-11T15:50:06.255Z,15.50
2023-01-11T15:52:32.629Z,16.50
2023-01-11T15:55:25.620Z,13.05
2023-01-11T15:57:54.978Z,13.52
2023-01-11T16:00:36.752Z,20.17
2023-01-11T16:03:17.385Z,14.57
2023-01-11T16:06:24.026Z,30.38
2023-01-11T16:09:03.773Z,12.85
2023-01-11T16:11:51.253Z,14.98
2023-01-11T16:14:56.621Z,15.68
2023-01-11T16:17:24.878Z,22.20
2023-01-11T16:19:56.747Z,14.10
2023-01-11T16:22:26.402Z,17.33
2023-01-11T16:24:56.915Z,21.38
2023-01-11T16:27:29.554Z,19.17
2023-01-11T16:29:56.662Z,21.90
2023-01-11T16:32:32.484Z,14.57
2023-01-11T16:35:15.189Z,15.57
2023-01-11T16:37:49.425Z,17.98
2023-01-11T16:40:29.892Z,13.88
2023-01-11T16:43:05.601Z,12.27
2023-01-11T16:45:47.086Z,13.70
2023-01-11T16:48:24.905Z,23.58
2023-01-11T16:50:58.039Z,22.77
2023-01-11T16:53:26.633Z,22.23
2023-01-11T16:56:05.640Z,21.25
2023-01-11T16:58:35.104Z,28.17
2023-01-11T17:01:03.392Z,31.13
2023-01-11T17:03:35.689Z,26.55
2023-01-11T17:06:15.218Z,26.38
2023-01-11T17:08:47.862Z,22.42
2023-01-11T17:11:41.600Z,27.52
2023-01-11T17:14:41.928Z,26.38
2023-01-11T17:19:43.283Z,33.85
2023-01-11T17:22:17.772Z,28.27
2023-01-11T17:24:53.552Z,27.60
2023-01-11T17:27:25.712Z,23.52
2023-01-11T17:29:54.878Z,20.67
2023-01-11T17:32:29.613Z,30.80
2023-01-11T17:34:56.567Z,28.27
2023-01-11T17:37:24.190Z,39.95
2023-01-11T17:39:54.930Z,24.38
2023-01-11T17:42:41.235Z,19.40
2023-01-11T17:45:20.983Z,23.35
2023-01-11T17:47:53.686Z,18.05
2023-01-11T17:50:39.666Z,14.95
2023-01-11T17:53:16.029Z,17.25
2023-01-11T17:55:53.031Z,15.73
2023-01-11T17:58:28.711Z,16.38
2023-01-11T18:01:04.440Z,18.35
2023-01-11T18:03:39.023Z,20.08
2023-01-11T18:06:14.246Z,15.90
2023-01-11T18:08:46.866Z,14.98
2023-01-11T18:11:28.738Z,14.35
2023-01-11T18:13:59.755Z,16.67
2023-01-11T18:16:26.848Z,15.50
2023-01-11T18:18:54.977Z,15.55
2023-01-11T18:21:39.987Z,16.17
2023-01-11T18:24:09.696Z,16.05
2023-01-11T18:26:45.549Z,15.43
2023-01-11T18:29:42.291Z,14.27
2023-01-11T18:32:10.954Z,21.05
2023-01-11T18:34:37.408Z,16.63
2023-01-11T18:37:07.687Z,19.75
2023-01-11T18:42:08.559Z,16.80
2023-01-11T18:44:43.755Z,15.52
2023-01-11T18:47:19.468Z,32.92
2023-01-11T18:49:46.353Z,19.17
2023-01-11T18:52:13.294Z,16.45
2023-01-11T18:54:41.167Z,15.32
2023-01-11T18:57:08.282Z,16.10
2023-01-11T18:59:35.181Z,15.70
2023-01-11T19:02:16.921Z,15.13
2023-01-11T19:04:43.975Z,16.00
2023-01-11T19:07:11.448Z,15.65
2023-01-11T19:09:37.852Z,16.58
2023-01-11T19:12:04.444Z,14.00
2023-01-11T19:14:30.859Z,14.93
2023-01-11T19:16:57.298Z,14.38
2023-01-11T19:19:23.737Z,16.75
2023-01-11T19:21:50.520Z,15.52
2023-01-11T19:24:16.920Z,15.02
2023-01-11T19:26:43.395Z,14.73
2023-01-11T19:29:09.894Z,17.05
2023-01-11T19:31:36.356Z,14.55
2023-01-11T19:34:02.808Z,15.77
2023-01-11T19:36:32.093Z,16.17
2023-01-11T19:38:58.463Z,14.83
2023-01-11T19:41:24.851Z,14.50
2023-01-11T19:43:51.344Z,14.25
2023-01-11T19:46:30.609Z,13.18
2023-01-11T19:48:58.274Z,14.13
2023-01-11T19:51:24.684Z,14.15
2023-01-11T19:53:53.841Z,15.15
2023-01-11T19:56:20.278Z,13.68
2023-01-11T19:58:46.684Z,14.43
2023-01-11T20:01:13.351Z,14.07
2023-01-11T20:03:41.543Z,14.55
2023-01-11T20:06:08.854Z,13.50
2023-01-11T20:08:38.483Z,12.80
2023-01-11T20:11:09.551Z,13.73
2023-01-11T20:13:36.361Z,13.45
2023-01-11T20:16:10.774Z,14.13
2023-01-11T20:18:37.276Z,13.45
2023-01-11T20:21:04.247Z,13.00
2023-01-11T20:23:31.792Z,12.70
2023-01-11T20:25:59.483Z,13.40
2023-01-11T20:28:26.453Z,13.98
2023-01-11T20:30:53.751Z,12.95
2023-01-11T20:33:20.615Z,13.15
2023-01-11T20:35:48.587Z,12.82
2023-01-11T20:38:15.152Z,12.98
2023-01-11T20:40:42.182Z,13.55
2023-01-11T20:43:10.675Z,13.15
2023-01-11T20:45:39.837Z,14.52
2023-01-11T20:48:07.300Z,13.10
2023-01-11T20:50:35.511Z,13.80
2023-01-11T20:53:02.980Z,14.05
2023-01-11T20:55:29.519Z,12.45
2023-01-11T20:57:56.069Z,12.23
2023-01-11T21:00:22.587Z,13.32
2023-01-11T21:02:50.421Z,12.63
2023-01-11T21:05:17.040Z,14.27
2023-01-11T21:07:43.479Z,13.85
2023-01-11T21:10:10.468Z,13.50
2023-01-11T21:15:03.709Z,13.02
2023-01-11T21:17:30.184Z,13.00
2023-01-11T21:19:56.585Z,13.05
2023-01-11T21:22:23.022Z,14.30
2023-01-11T21:24:49.506Z,13.55
2023-01-11T21:27:16.009Z,13.35
2023-01-11T21:29:42.448Z,14.10
2023-01-11T21:32:08.954Z,12.80
2023-01-11T21:34:35.408Z,13.57
2023-01-11T21:37:01.806Z,12.73
2023-01-11T21:39:28.273Z,12.38
2023-01-11T21:42:01.175Z,13.90
2023-01-11T21:44:33.405Z,12.85
2023-01-11T21:47:01.948Z,12.98
2023-01-11T21:49:28.444Z,13.73
2023-01-11T21:51:54.851Z,14.18
2023-01-11T21:54:21.470Z,13.98
2023-01-11T21:56:49.138Z,13.77
2023-01-11T21:59:16.474Z,13.02
2023-01-11T22:01:45.355Z,13.30
2023-01-11T22:04:14.706Z,13.00
2023-01-11T22:06:43.729Z,13.68
2023-01-11T22:09:11.646Z,13.25
2023-01-11T22:11:39.237Z,13.75
2023-01-11T22:14:06.733Z,13.60
2023-01-11T22:16:34.564Z,13.25
2023-01-11T22:19:02.176Z,13.25
2023-01-11T22:21:29.294Z,13.15
2023-01-11T22:23:57.741Z,12.85
2023-01-11T22:26:25.445Z,12.88
2023-01-11T22:29:12.694Z,13.05
2023-01-11T22:31:45.234Z,13.50
2023-01-11T22:34:13.562Z,15.85
2023-01-11T22:36:40.756Z,16.42
2023-01-11T22:39:07.510Z,18.33
2023-01-11T22:41:33.989Z,18.67
2023-01-11T22:44:00.504Z,18.38
2023-01-11T22:46:27.974Z,18.15
2023-01-11T22:48:54.459Z,18.95
2023-01-11T22:51:23.522Z,18.70
2023-01-11T22:53:51.618Z,17.88
2023-01-11T22:56:19.882Z,17.38
2023-01-11T22:58:52.236Z,18.08
2023-01-11T23:01:22.729Z,17.90
2023-01-11T23:03:49.996Z,17.50
2023-01-11T23:06:22.743Z,17.75
2023-01-11T23:08:49.213Z,20.30
2023-01-11T23:11:37.774Z,20.77
2023-01-11T23:14:05.714Z,21.60
2023-01-11T23:16:32.861Z,21.77
2023-01-11T23:19:00.142Z,23.02
2023-01-11T23:21:27.696Z,23.25
2023-01-11T23:23:54.309Z,23.63
2023-01-11T23:26:21.438Z,22.70
2023-01-11T23:28:49.763Z,22.88
2023-01-11T23:31:19.640Z,22.65
2023-01-11T23:33:48.690Z,23.60
2023-01-11T23:36:17.148Z,23.13
2023-01-11T23:38:43.566Z,22.85
2023-01-11T23:41:30.955Z,22.33
2023-01-11T23:43:57.431Z,22.73
2023-01-11T23:46:43.372Z,21.88
2023-01-11T23:49:11.142Z,21.73
2023-01-11T23:51:38.105Z,20.77
2023-01-11T23:54:05.538Z,19.73
2023-01-11T23:56:33.355Z,20.45
2023-01-11T23:59:00.407Z,20.83
